createdAt,value
2017-10-25T00:02:06.602Z,7.28
2017-10-25T00:04:34.147Z,7.14
2017-10-25T00:07:01.700Z,7.09
2017-10-25T00:09:29.285Z,6.94
2017-10-25T00:11:56.828Z,6.95
2017-10-25T00:14:26.180Z,6.80
2017-10-25T00:16:53.748Z,6.70
2017-10-25T00:19:21.281Z,6.58
2017-10-25T00:21:48.833Z,6.52
2017-10-25T00:24:16.386Z,6.47
2017-10-25T00:26:43.937Z,6.40
2017-10-25T00:29:11.546Z,6.33
2017-10-25T00:31:39.094Z,6.30
2017-10-25T00:34:06.723Z,6.34
2017-10-25T00:36:34.290Z,6.25
2017-10-25T00:39:01.836Z,6.25
2017-10-25T00:41:29.384Z,6.16
2017-10-25T00:43:56.955Z,6.24
2017-10-25T00:46:24.496Z,6.19
2017-10-25T00:48:52.041Z,6.10
2017-10-25T00:51:19.664Z,6.10
2017-10-25T00:53:47.211Z,6.16
2017-10-25T00:56:14.801Z,6.15
2017-10-25T00:58:42.379Z,6.12
2017-10-25T01:01:09.925Z,6.08
2017-10-25T01:03:37.451Z,6.05
2017-10-25T01:06:05.019Z,6.09
2017-10-25T01:08:32.570Z,6.08
2017-10-25T01:11:00.101Z,6.00
2017-10-25T01:13:27.724Z,6.12
2017-10-25T01:15:55.316Z,6.16
2017-10-25T01:18:23.006Z,6.21
2017-10-25T01:20:50.557Z,6.30
2017-10-25T01:23:18.091Z,6.31
2017-10-25T01:25:45.642Z,6.31
2017-10-25T01:28:13.324Z,6.38
2017-10-25T01:30:40.871Z,6.49
2017-10-25T01:33:08.537Z,6.58
2017-10-25T01:35:36.128Z,6.68
2017-10-25T01:38:03.728Z,6.72
2017-10-25T01:40:31.332Z,6.76
2017-10-25T01:42:58.880Z,6.80
2017-10-25T01:45:26.502Z,6.91
2017-10-25T01:47:54.083Z,6.99
2017-10-25T01:50:21.625Z,7.13
2017-10-25T01:52:49.201Z,7.23
2017-10-25T01:55:16.864Z,7.26
2017-10-25T01:57:44.410Z,7.33
2017-10-25T02:00:11.978Z,7.47
2017-10-25T02:02:39.664Z,7.48
2017-10-25T02:05:07.683Z,7.45
2017-10-25T02:07:35.578Z,7.55
2017-10-25T02:10:03.491Z,7.59
2017-10-25T02:12:31.033Z,7.57
2017-10-25T02:14:58.609Z,7.59
2017-10-25T02:17:26.135Z,7.66
2017-10-25T02:19:53.677Z,7.77
2017-10-25T02:22:21.371Z,7.84
2017-10-25T02:24:48.925Z,7.94
2017-10-25T02:27:16.507Z,8.00
2017-10-25T02:32:17.890Z,8.20
2017-10-25T02:34:45.433Z,8.35
2017-10-25T02:37:13.029Z,8.49
2017-10-25T02:39:40.569Z,8.51
2017-10-25T02:42:08.116Z,8.49
2017-10-25T02:44:35.920Z,8.49
2017-10-25T02:47:03.481Z,8.56
2017-10-25T02:49:31.006Z,8.60
2017-10-25T02:51:58.655Z,8.71
2017-10-25T02:54:26.365Z,8.76
2017-10-25T02:56:54.362Z,8.77
2017-10-25T02:59:21.978Z,8.75
2017-10-25T03:01:49.527Z,8.66
2017-10-25T03:04:17.070Z,8.67
2017-10-25T03:06:44.623Z,8.69
2017-10-25T03:09:12.194Z,8.78
2017-10-25T03:11:39.751Z,8.79
2017-10-25T03:14:07.276Z,8.68
2017-10-25T03:16:34.848Z,8.61
2017-10-25T03:19:02.384Z,8.59
2017-10-25T03:21:29.956Z,8.55
2017-10-25T03:23:57.537Z,8.52
2017-10-25T03:26:25.068Z,8.72
2017-10-25T03:28:52.617Z,8.98
2017-10-25T03:31:20.199Z,9.18
2017-10-25T03:33:47.741Z,9.12
2017-10-25T03:36:15.321Z,9.15
2017-10-25T03:38:42.889Z,9.16
2017-10-25T03:41:10.570Z,9.18
2017-10-25T03:43:38.139Z,9.39
2017-10-25T03:46:05.685Z,9.37
2017-10-25T03:48:33.249Z,9.36
2017-10-25T03:51:00.776Z,9.64
2017-10-25T03:53:28.334Z,9.58
2017-10-25T03:55:55.870Z,9.49
2017-10-25T03:58:23.433Z,9.38
2017-10-25T04:00:51.042Z,9.37
2017-10-25T04:03:18.568Z,9.32
2017-10-25T04:05:46.113Z,9.25
2017-10-25T04:08:13.708Z,9.13
2017-10-25T04:10:42.122Z,9.11
2017-10-25T04:13:09.733Z,8.97
2017-10-25T04:15:37.255Z,9.05
2017-10-25T04:18:05.085Z,9.06
2017-10-25T04:20:32.657Z,9.14
2017-10-25T04:23:00.222Z,9.13
2017-10-25T04:25:27.806Z,9.05
2017-10-25T04:27:55.337Z,9.11
2017-10-25T04:30:22.884Z,9.06
2017-10-25T04:32:50.436Z,9.02
2017-10-25T04:35:17.976Z,9.01
2017-10-25T04:37:45.550Z,8.88
2017-10-25T04:40:13.125Z,8.79
2017-10-25T04:42:40.699Z,8.73
2017-10-25T04:45:08.271Z,8.68
2017-10-25T04:47:35.960Z,8.59
2017-10-25T04:50:03.502Z,8.54
2017-10-25T04:52:31.038Z,8.48
2017-10-25T04:54:58.583Z,8.35
2017-10-25T04:57:26.155Z,8.38
2017-10-25T04:59:53.710Z,8.33
2017-10-25T05:02:21.251Z,8.29
2017-10-25T05:04:48.780Z,8.28
2017-10-25T05:07:16.331Z,8.37
2017-10-25T05:09:43.888Z,8.27
2017-10-25T05:12:11.410Z,8.35
2017-10-25T05:14:38.956Z,8.34
2017-10-25T05:17:06.557Z,8.26
2017-10-25T05:19:34.091Z,8.20
2017-10-25T05:22:01.639Z,8.18
2017-10-25T05:24:29.524Z,8.21
2017-10-25T05:26:57.064Z,8.17
2017-10-25T05:29:24.648Z,8.12
2017-10-25T05:31:52.193Z,8.07
2017-10-25T05:34:19.741Z,8.03
2017-10-25T05:36:47.280Z,7.98
2017-10-25T05:39:14.882Z,7.94
2017-10-25T05:41:42.438Z,7.94
2017-10-25T05:44:10.006Z,7.97
2017-10-25T05:46:37.577Z,7.98
2017-10-25T05:49:05.116Z,7.95
2017-10-25T05:51:32.662Z,8.00
2017-10-25T05:54:00.209Z,7.97
2017-10-25T05:56:27.739Z,8.01
2017-10-25T05:58:55.270Z,7.99
2017-10-25T06:01:22.862Z,8.03
2017-10-25T06:03:50.392Z,8.04
2017-10-25T06:06:17.933Z,8.05
2017-10-25T06:08:45.480Z,8.18
2017-10-25T06:11:13.077Z,8.29
2017-10-25T06:13:40.674Z,8.26
2017-10-25T06:16:08.812Z,8.33
2017-10-25T06:18:36.407Z,8.38
2017-10-25T06:21:03.941Z,8.45
2017-10-25T06:23:31.481Z,8.46
2017-10-25T06:25:59.076Z,8.61
2017-10-25T06:28:26.622Z,8.63
2017-10-25T06:30:54.150Z,8.76
2017-10-25T06:33:21.689Z,8.70
2017-10-25T06:35:49.239Z,8.73
2017-10-25T06:38:16.957Z,8.75
2017-10-25T06:40:44.514Z,8.92
2017-10-25T06:43:12.081Z,8.90
2017-10-25T06:45:39.622Z,9.08
2017-10-25T06:48:07.150Z,9.22
2017-10-25T06:50:34.755Z,9.21
2017-10-25T06:53:02.321Z,9.35
2017-10-25T06:55:29.858Z,9.43
2017-10-25T06:57:57.522Z,9.47
2017-10-25T07:00:25.065Z,9.55
2017-10-25T07:02:52.626Z,9.66
2017-10-25T07:05:20.261Z,9.77
2017-10-25T07:07:47.835Z,9.84
2017-10-25T07:10:15.434Z,9.87
2017-10-25T07:12:42.977Z,9.77
2017-10-25T07:15:10.582Z,9.68
2017-10-25T07:17:38.125Z,9.89
2017-10-25T07:20:05.678Z,10.09
2017-10-25T07:22:33.217Z,10.06
2017-10-25T07:25:00.743Z,10.01
2017-10-25T07:27:28.358Z,10.25
2017-10-25T07:29:55.904Z,10.52
2017-10-25T07:32:23.427Z,10.77
2017-10-25T07:34:50.991Z,10.94
2017-10-25T07:37:18.529Z,11.10
2017-10-25T07:39:46.062Z,11.19
2017-10-25T07:42:13.635Z,11.19
2017-10-25T07:44:41.219Z,11.26
2017-10-25T07:47:08.748Z,11.30
2017-10-25T07:49:36.287Z,11.35
2017-10-25T07:52:03.866Z,11.45
2017-10-25T07:54:31.401Z,11.54
2017-10-25T07:56:58.953Z,11.57
2017-10-25T07:59:26.520Z,11.65
2017-10-25T08:01:54.059Z,11.77
2017-10-25T08:04:21.626Z,11.90
2017-10-25T08:06:49.166Z,12.10
2017-10-25T08:09:16.694Z,12.32
2017-10-25T08:11:44.351Z,12.37
2017-10-25T08:14:11.898Z,12.51
2017-10-25T08:16:39.425Z,12.43
2017-10-25T08:19:07.003Z,12.41
2017-10-25T08:21:34.551Z,12.45
2017-10-25T08:24:02.098Z,12.48
2017-10-25T08:26:29.681Z,12.42
2017-10-25T08:28:57.224Z,12.37
2017-10-25T08:31:24.776Z,12.28
2017-10-25T08:33:52.343Z,12.43
2017-10-25T08:36:19.906Z,12.44
2017-10-25T08:38:47.531Z,12.44
2017-10-25T08:41:15.124Z,12.37
2017-10-25T08:43:42.804Z,12.31
2017-10-25T08:46:10.300Z,12.30
2017-10-25T08:48:37.859Z,12.38
2017-10-25T08:51:05.446Z,12.46
2017-10-25T08:53:33.015Z,12.50
2017-10-25T08:56:00.566Z,12.52
2017-10-25T08:58:28.106Z,12.54
2017-10-25T09:00:55.703Z,12.62
2017-10-25T09:03:23.471Z,12.74
2017-10-25T09:05:51.048Z,12.85
2017-10-25T09:08:18.663Z,12.96
2017-10-25T09:10:46.190Z,13.16
2017-10-25T09:13:13.727Z,13.43
2017-10-25T09:15:41.288Z,13.70
2017-10-25T09:18:08.822Z,13.78
2017-10-25T09:20:36.345Z,13.82
2017-10-25T09:23:04.005Z,13.93
2017-10-25T09:25:31.607Z,14.03
2017-10-25T09:27:59.182Z,14.16
2017-10-25T09:30:26.796Z,14.29
2017-10-25T09:32:54.381Z,14.42
2017-10-25T09:35:22.216Z,14.61
2017-10-25T09:37:49.776Z,14.80
2017-10-25T09:40:17.332Z,14.98
2017-10-25T09:42:44.878Z,15.15
2017-10-25T09:45:12.415Z,15.23
2017-10-25T09:47:39.979Z,15.42
2017-10-25T09:50:07.516Z,15.49
2017-10-25T09:52:35.073Z,15.40
2017-10-25T09:55:02.657Z,15.29
2017-10-25T09:57:30.209Z,15.30
2017-10-25T09:59:57.770Z,15.21
2017-10-25T10:02:25.345Z,15.20
2017-10-25T10:04:52.925Z,15.43
2017-10-25T10:07:20.483Z,15.52
2017-10-25T10:09:48.069Z,15.41
2017-10-25T10:12:15.641Z,15.40
2017-10-25T10:14:43.177Z,15.35
2017-10-25T10:17:11.223Z,15.53
2017-10-25T10:19:39.206Z,15.81
2017-10-25T10:22:06.772Z,16.11
2017-10-25T10:24:34.781Z,16.15
2017-10-25T10:27:02.326Z,16.26
2017-10-25T10:29:29.900Z,16.04
2017-10-25T10:31:57.447Z,15.82
2017-10-25T10:34:24.981Z,15.94
2017-10-25T10:36:52.526Z,16.03
2017-10-25T10:39:20.084Z,15.92
2017-10-25T10:41:47.625Z,15.72
2017-10-25T10:44:15.191Z,15.85
2017-10-25T10:46:42.755Z,15.89
2017-10-25T10:49:11.927Z,15.99
2017-10-25T10:51:39.631Z,16.14
2017-10-25T10:54:07.172Z,16.06
2017-10-25T10:56:34.804Z,16.26
2017-10-25T10:59:02.398Z,16.17
2017-10-25T11:01:29.949Z,16.27
2017-10-25T11:03:57.481Z,16.33
2017-10-25T11:06:25.516Z,16.17
2017-10-25T11:08:53.070Z,16.13
2017-10-25T11:11:20.672Z,16.10
2017-10-25T11:13:48.264Z,16.26
2017-10-25T11:16:15.804Z,16.52
2017-10-25T11:18:43.348Z,16.56
2017-10-25T11:21:11.114Z,16.44
2017-10-25T11:23:38.708Z,16.49
2017-10-25T11:26:06.264Z,16.52
2017-10-25T11:28:33.819Z,16.41
2017-10-25T11:31:01.384Z,16.29
2017-10-25T11:33:28.944Z,16.46
2017-10-25T11:35:56.524Z,16.72
2017-10-25T11:38:24.092Z,16.88
2017-10-25T11:40:51.669Z,16.90
2017-10-25T11:43:19.245Z,16.96
2017-10-25T11:45:46.814Z,17.25
2017-10-25T11:48:14.393Z,17.58
2017-10-25T11:50:41.957Z,17.65
2017-10-25T11:53:09.727Z,17.39
2017-10-25T11:55:37.574Z,17.33
2017-10-25T11:58:05.118Z,17.20
2017-10-25T12:00:32.684Z,17.02
2017-10-25T12:03:00.239Z,17.09
2017-10-25T12:05:27.789Z,17.04
2017-10-25T12:07:55.373Z,17.00
2017-10-25T12:10:22.905Z,16.98
2017-10-25T12:12:50.446Z,16.98
2017-10-25T12:15:18.032Z,17.09
2017-10-25T12:17:45.605Z,17.46
2017-10-25T12:20:13.153Z,17.37
2017-10-25T12:22:40.708Z,17.60
2017-10-25T12:25:08.287Z,17.60
2017-10-25T12:27:35.841Z,17.48
2017-10-25T12:30:03.417Z,17.45
2017-10-25T12:32:31.000Z,17.35
2017-10-25T12:34:58.545Z,17.15
2017-10-25T12:37:26.093Z,16.98
2017-10-25T12:39:53.642Z,16.94
2017-10-25T12:42:21.391Z,17.12
2017-10-25T12:44:48.927Z,16.97
2017-10-25T12:47:17.624Z,16.98
2017-10-25T12:49:45.215Z,16.72
2017-10-25T12:52:12.753Z,16.74
2017-10-25T12:54:41.208Z,16.88
2017-10-25T12:57:08.878Z,16.89
2017-10-25T12:59:36.439Z,17.02
2017-10-25T13:02:03.999Z,16.87
2017-10-25T13:04:31.566Z,16.89
2017-10-25T13:06:59.121Z,16.82
2017-10-25T13:09:27.128Z,16.88
2017-10-25T13:15:23.466Z,16.91
2017-10-25T13:17:58.231Z,17.04
2017-10-25T13:20:25.846Z,17.05
2017-10-25T13:22:53.399Z,16.89
2017-10-25T13:25:20.993Z,16.74
2017-10-25T13:27:48.515Z,16.56
2017-10-25T13:30:16.038Z,16.64
2017-10-25T13:32:43.598Z,16.76
2017-10-25T13:35:11.161Z,16.74
2017-10-25T13:37:38.725Z,16.87
2017-10-25T13:40:06.316Z,16.98
2017-10-25T13:42:33.858Z,17.15
2017-10-25T13:45:01.426Z,17.44
2017-10-25T13:47:29.128Z,17.85
2017-10-25T13:49:56.684Z,17.79
2017-10-25T13:52:24.233Z,17.50
2017-10-25T13:54:51.797Z,17.15
2017-10-25T13:57:19.336Z,16.70
2017-10-25T13:59:46.890Z,16.51
2017-10-25T14:02:14.471Z,16.48
2017-10-25T14:04:42.577Z,16.42
2017-10-25T14:07:10.136Z,16.43
2017-10-25T14:09:37.703Z,16.61
2017-10-25T14:12:05.747Z,16.57
2017-10-25T14:14:33.668Z,16.47
2017-10-25T14:17:01.305Z,16.67
2017-10-25T14:19:28.910Z,16.54
2017-10-25T14:21:56.446Z,16.34
2017-10-25T14:24:23.988Z,16.31
2017-10-25T14:27:05.897Z,16.56
2017-10-25T14:29:33.484Z,16.51
2017-10-25T14:32:01.041Z,16.49
2017-10-25T14:34:28.622Z,16.34
2017-10-25T14:36:56.161Z,16.28
2017-10-25T14:39:23.726Z,16.18
2017-10-25T14:41:51.336Z,15.91
2017-10-25T14:44:18.900Z,15.84
2017-10-25T14:46:46.426Z,15.89
2017-10-25T14:49:14.013Z,16.15
2017-10-25T14:51:41.560Z,16.32
2017-10-25T14:54:09.134Z,16.36
2017-10-25T14:56:36.702Z,16.30
2017-10-25T14:59:04.241Z,16.22
2017-10-25T15:01:31.800Z,16.13
2017-10-25T15:03:59.363Z,15.92
2017-10-25T15:06:26.896Z,15.71
2017-10-25T15:08:54.438Z,15.53
2017-10-25T15:11:22.009Z,15.33
2017-10-25T15:13:49.555Z,15.28
2017-10-25T15:16:17.093Z,15.21
2017-10-25T15:18:44.724Z,15.11
2017-10-25T15:21:12.330Z,15.00
2017-10-25T15:23:39.873Z,14.95
2017-10-25T15:26:07.434Z,14.83
2017-10-25T15:28:34.979Z,14.64
2017-10-25T15:31:02.577Z,14.60
2017-10-25T15:33:30.249Z,14.69
2017-10-25T15:35:57.780Z,14.57
2017-10-25T15:38:25.343Z,14.53
2017-10-25T15:40:52.913Z,14.44
2017-10-25T15:43:20.458Z,14.31
2017-10-25T15:45:48.014Z,14.36
2017-10-25T15:48:15.603Z,14.32
2017-10-25T15:50:43.152Z,14.33
2017-10-25T15:53:10.871Z,14.28
2017-10-25T15:55:38.440Z,14.09
2017-10-25T15:58:05.982Z,14.01
2017-10-25T16:00:33.518Z,13.89
2017-10-25T16:03:01.077Z,13.80
2017-10-25T16:05:28.641Z,13.73
2017-10-25T16:07:56.187Z,13.69
2017-10-25T16:10:23.767Z,13.61
2017-10-25T16:12:51.295Z,13.56
2017-10-25T16:15:18.837Z,13.50
2017-10-25T16:17:46.416Z,13.58
2017-10-25T16:20:14.053Z,13.55
2017-10-25T16:22:41.597Z,13.47
2017-10-25T16:25:09.450Z,13.33
2017-10-25T16:27:37.012Z,13.18
2017-10-25T16:30:04.558Z,13.15
2017-10-25T16:32:32.106Z,13.08
2017-10-25T16:34:59.672Z,13.16
2017-10-25T16:37:27.238Z,13.15
2017-10-25T16:39:54.820Z,13.20
2017-10-25T16:42:22.358Z,13.10
2017-10-25T16:44:49.926Z,13.08
2017-10-25T16:47:17.492Z,13.09
2017-10-25T16:49:45.045Z,13.11
2017-10-25T16:52:12.635Z,13.10
2017-10-25T16:54:40.206Z,13.07
2017-10-25T16:57:07.807Z,13.05
2017-10-25T16:59:35.469Z,13.14
2017-10-25T17:02:03.009Z,13.06
2017-10-25T17:04:30.553Z,13.03
2017-10-25T17:06:58.262Z,12.97
2017-10-25T17:09:25.807Z,12.87
2017-10-25T17:11:54.204Z,12.83
2017-10-25T17:14:21.964Z,12.77
2017-10-25T17:16:49.557Z,12.76
2017-10-25T17:19:17.177Z,12.74
2017-10-25T17:21:44.829Z,12.72
2017-10-25T17:24:12.447Z,12.64
2017-10-25T17:26:40.005Z,12.64
2017-10-25T17:29:09.266Z,12.60
2017-10-25T17:31:36.890Z,12.64
2017-10-25T17:34:04.538Z,12.72
2017-10-25T17:36:32.100Z,12.72
2017-10-25T17:38:59.992Z,12.70
2017-10-25T17:41:27.556Z,12.52
2017-10-25T17:43:55.115Z,12.50
2017-10-25T17:46:22.968Z,12.36
2017-10-25T17:48:50.512Z,12.21
2017-10-25T17:51:18.067Z,12.11
2017-10-25T17:53:45.617Z,12.19
2017-10-25T17:56:13.165Z,12.13
2017-10-25T17:58:40.775Z,12.11
2017-10-25T18:01:08.324Z,12.07
2017-10-25T18:03:35.859Z,12.02
2017-10-25T18:06:03.458Z,11.94
2017-10-25T18:08:31.011Z,11.97
2017-10-25T18:10:58.588Z,12.15
2017-10-25T18:13:26.148Z,12.23
2017-10-25T18:15:53.685Z,12.27
2017-10-25T18:18:21.225Z,12.25
2017-10-25T18:20:48.778Z,12.33
2017-10-25T18:23:16.367Z,12.56
2017-10-25T18:25:44.182Z,12.61
2017-10-25T18:28:11.750Z,12.62
2017-10-25T18:30:39.286Z,12.63
2017-10-25T18:33:06.839Z,12.59
2017-10-25T18:35:34.410Z,12.48
2017-10-25T18:38:02.323Z,12.46
2017-10-25T18:40:29.969Z,12.32
2017-10-25T18:42:57.545Z,12.24
2017-10-25T18:45:25.121Z,12.17
2017-10-25T18:47:52.672Z,12.01
2017-10-25T18:50:20.231Z,11.89
2017-10-25T18:52:47.770Z,11.72
2017-10-25T18:55:15.350Z,11.67
2017-10-25T18:57:42.925Z,11.53
2017-10-25T19:00:10.485Z,11.43
2017-10-25T19:02:38.034Z,11.46
2017-10-25T19:05:06.126Z,11.43
2017-10-25T19:07:33.667Z,11.21
2017-10-25T19:10:01.209Z,10.97
2017-10-25T19:12:28.769Z,10.68
2017-10-25T19:14:56.300Z,10.40
2017-10-25T19:17:23.888Z,10.13
2017-10-25T19:19:51.458Z,10.01
2017-10-25T19:22:18.991Z,9.98
2017-10-25T19:24:46.527Z,9.87
2017-10-25T19:27:14.165Z,9.69
2017-10-25T19:29:41.709Z,9.68
2017-10-25T19:32:09.308Z,9.54
2017-10-25T19:34:36.836Z,9.40
2017-10-25T19:37:04.455Z,9.24
2017-10-25T19:39:32.025Z,9.15
2017-10-25T19:41:59.556Z,9.07
2017-10-25T19:44:27.149Z,9.01
2017-10-25T19:46:54.752Z,8.91
2017-10-25T19:49:22.301Z,8.87
2017-10-25T19:51:49.817Z,8.86
2017-10-25T19:54:17.369Z,8.79
2017-10-25T19:56:44.891Z,8.64
2017-10-25T19:59:12.473Z,8.61
2017-10-25T20:01:40.228Z,8.54
2017-10-25T20:04:07.840Z,8.48
2017-10-25T20:06:35.383Z,8.37
2017-10-25T20:09:03.125Z,8.27
2017-10-25T20:11:30.715Z,8.21
2017-10-25T20:13:58.281Z,8.14
2017-10-25T20:16:26.012Z,8.28
2017-10-25T20:18:53.562Z,8.31
2017-10-25T20:21:21.133Z,8.19
2017-10-25T20:23:48.835Z,8.28
2017-10-25T20:26:16.372Z,8.23
2017-10-25T20:28:43.908Z,8.26
2017-10-25T20:31:12.100Z,8.10
2017-10-25T20:33:39.696Z,7.99
2017-10-25T20:36:07.320Z,7.95
2017-10-25T20:38:34.994Z,7.90
2017-10-25T20:41:02.515Z,7.83
2017-10-25T20:43:30.623Z,7.79
2017-10-25T20:45:58.185Z,7.74
2017-10-25T20:48:25.699Z,7.83
2017-10-25T20:50:53.243Z,7.82
2017-10-25T20:53:20.806Z,7.88
2017-10-25T20:55:48.350Z,7.93
2017-10-25T20:58:16.244Z,7.89
2017-10-25T21:00:43.758Z,7.85
2017-10-25T21:03:11.546Z,7.80
2017-10-25T21:05:39.087Z,7.73
2017-10-25T21:08:06.714Z,7.68
2017-10-25T21:10:34.238Z,7.62
2017-10-25T21:13:01.813Z,7.61
2017-10-25T21:15:29.353Z,7.58
2017-10-25T21:17:56.890Z,7.55
2017-10-25T21:20:24.430Z,7.52
2017-10-25T21:22:51.963Z,7.46
2017-10-25T21:25:19.482Z,7.43
2017-10-25T21:27:47.118Z,7.38
2017-10-25T21:30:14.662Z,7.30
2017-10-25T21:32:42.179Z,7.28
2017-10-25T21:35:09.799Z,7.31
2017-10-25T21:37:37.321Z,7.37
2017-10-25T21:40:04.886Z,7.33
2017-10-25T21:42:32.454Z,7.37
2017-10-25T21:44:59.977Z,7.40
2017-10-25T21:47:27.664Z,7.38
2017-10-25T21:49:55.324Z,7.36
2017-10-25T21:52:22.878Z,7.29
2017-10-25T21:54:50.409Z,7.25
2017-10-25T21:57:17.957Z,7.19
2017-10-25T21:59:45.496Z,7.14
2017-10-25T22:02:13.089Z,7.11
2017-10-25T22:04:41.257Z,7.12
2017-10-25T22:07:09.214Z,7.11
2017-10-25T22:09:36.757Z,7.10
2017-10-25T22:12:05.153Z,7.10
2017-10-25T22:14:32.717Z,7.14
2017-10-25T22:17:00.597Z,7.13
2017-10-25T22:19:28.166Z,7.07
2017-10-25T22:21:55.736Z,7.10
2017-10-25T22:24:23.649Z,7.08
2017-10-25T22:26:51.240Z,7.02
2017-10-25T22:29:18.907Z,6.97
2017-10-25T22:31:46.442Z,6.98
2017-10-25T22:34:13.973Z,6.93
2017-10-25T22:36:41.529Z,6.92
2017-10-25T22:39:09.271Z,6.88
2017-10-25T22:41:37.282Z,6.83
2017-10-25T22:44:05.031Z,6.80
2017-10-25T22:46:32.560Z,6.77
2017-10-25T22:49:00.101Z,6.71
2017-10-25T22:51:27.707Z,6.69
2017-10-25T22:53:55.246Z,6.59
2017-10-25T22:56:22.804Z,6.58
2017-10-25T22:58:50.335Z,6.56
2017-10-25T23:01:17.867Z,6.64
2017-10-25T23:03:45.442Z,6.63
2017-10-25T23:06:12.971Z,6.76
2017-10-25T23:08:40.559Z,6.73
2017-10-25T23:11:08.244Z,6.73
2017-10-25T23:13:35.831Z,6.71
2017-10-25T23:16:03.373Z,6.73
2017-10-25T23:18:30.964Z,6.63
2017-10-25T23:20:58.505Z,6.59
2017-10-25T23:23:26.037Z,6.53
2017-10-25T23:25:53.603Z,6.44
2017-10-25T23:28:21.145Z,6.48
2017-10-25T23:30:48.693Z,6.44
2017-10-25T23:33:16.264Z,6.48
2017-10-25T23:35:43.801Z,6.41
2017-10-25T23:38:11.365Z,6.35
2017-10-25T23:40:38.946Z,6.45
2017-10-25T23:43:06.532Z,6.36
2017-10-25T23:45:34.110Z,6.32
2017-10-25T23:48:01.673Z,6.30
2017-10-25T23:50:29.207Z,6.31
2017-10-25T23:52:56.732Z,6.24
2017-10-25T23:55:24.336Z,6.25
2017-10-25T23:57:51.866Z,6.20
